Aérodrome :
LOGIN :

S'inscrire | Disclaimer

   EN    FR    IT 

 










Légende :    VFR   VFR Marginal   IFR   IFR Intensif   IFR Très Intensif
Visi : 
Plafond : 
>= 8 km
>= 3000ft
5 à 8 km
1000 à 3000 ft
1500m à 5 km
500 à 1000 ft
800 à 1500m
200 à 500 ft
< 800m
< 200 ft
Symboles :   Orages  Brouillard  Fortes neiges  Fortes précipitations  Vent > 20 kt
SIGMETs :   Divers  Orages  Givrage  Turbulence  Onde Orograph.  Cendres Volcan.







- Altitude de l'aérodrome : 80 ft
- Code IATA : LPL
- Voir les cartes d'approche


EGGP - Liverpool John Lennon

DERNIER METAR :
  • 221350Z 23009KT 9999 7000S -SHRA FEW002 SCT006 BKN022CB 03/01 Q0998

METARs EXPIRÉS :
  • 221320Z 22005KT 190V260 8000 -SHRASN SCT005 BKN010 BKN032CB 03/02 Q0998
  • 221250Z 23007KT 9999 8000E -SHRASN SCT009 SCT015 BKN028 02/01 Q0999
  • 221220Z 26006KT 7000 -SHRASN SCT008 BKN015 03/02 Q0999
  • 221150Z 28007KT 9999 VCSH FEW009 SCT019 BKN033 03/01 Q0999
  • 221120Z 25009KT 9999 VCSH FEW009 SCT019 BKN040 03/02 Q1000 RESHRA

TAF AMD TAF EGGP
Valide du 22 à 12h jusqu'au 23 à 12h UTC


221105Z 2212/2312 25009KT 9999 SCT020
TEMPO 2212/2303 3000 SHRASN BKN010 BKN020CB
PROB30
TEMPO 2212/2303 1200 SHSN +SHGS BKN004
PROB30
TEMPO 2303/2308 1200 SHSN BKN004
BECMG 2307/2310 7000
ATIS : +44 151 907 2000 (option 5 or ext 5150)
Météo : +44 871 750 5150
Pas de NOTAMs connus pour ce terrain.
1 SIGMET publié pour la FIR London (EGTT) :
 
Turbulence forte
EGTT SIGMET 01 VALID 221030/221430 EGRR
EGTT LONDON FIR SEV TURB FCST WI N5220 W00530 - N5429 W00530 - N5214 W00410 - N5045 W00342 - N4947 W00604 - N5143 W00639 - N5220 W00530 FL160/400 MOV E 15KT NC=



MET'MAP, la Météo Aéronautique d'un coup d'oeil ! - Copyright ORBIFLY Décembre 2007 - Disclaimer

ORBIFLY MET'MAP TEAM :

Programmation & Développement : Alexandra Zaïnal
Conception & Développement : Baudouin d'Aumeries
Co-Programmation & Développement : Marc-Olivier Méhu
Soutien technique & logistique : Manuel Goepfert

Contact : metmap@orbifly.com




SOURCES & CREDITS :

   NOAA